sensor_id;sensor_type;location;lat;lon;timestamp;P1;durP1;ratioP1;P2;durP2;ratioP2
47337;SDS011;33069;51.970;5.892;2022-12-07T00:00:54;35.92;;;32.05;;
47337;SDS011;33069;51.970;5.892;2022-12-07T00:03:21;41.03;;;33.05;;
47337;SDS011;33069;51.970;5.892;2022-12-07T00:05:46;38.20;;;34.10;;
47337;SDS011;33069;51.970;5.892;2022-12-07T00:08:31;38.88;;;34.72;;
47337;SDS011;33069;51.970;5.892;2022-12-07T00:11:02;37.90;;;33.63;;
47337;SDS011;33069;51.970;5.892;2022-12-07T00:13:32;36.47;;;32.88;;
47337;SDS011;33069;51.970;5.892;2022-12-07T00:16:05;37.33;;;32.50;;
47337;SDS011;33069;51.970;5.892;2022-12-07T00:18:32;39.45;;;34.72;;
47337;SDS011;33069;51.970;5.892;2022-12-07T00:23:50;42.97;;;34.60;;
47337;SDS011;33069;51.970;5.892;2022-12-07T00:28:48;43.75;;;36.42;;
47337;SDS011;33069;51.970;5.892;2022-12-07T00:31:18;39.72;;;34.83;;
47337;SDS011;33069;51.970;5.892;2022-12-07T00:33:45;40.67;;;34.22;;
47337;SDS011;33069;51.970;5.892;2022-12-07T00:36:13;59.78;;;41.50;;
47337;SDS011;33069;51.970;5.892;2022-12-07T00:38:40;47.47;;;35.30;;
47337;SDS011;33069;51.970;5.892;2022-12-07T00:41:10;53.00;;;39.75;;
47337;SDS011;33069;51.970;5.892;2022-12-07T00:43:37;43.05;;;34.20;;
47337;SDS011;33069;51.970;5.892;2022-12-07T00:46:04;42.47;;;33.72;;
47337;SDS011;33069;51.970;5.892;2022-12-07T00:48:30;36.55;;;32.17;;
47337;SDS011;33069;51.970;5.892;2022-12-07T00:50:56;40.10;;;32.58;;
47337;SDS011;33069;51.970;5.892;2022-12-07T00:53:22;39.75;;;32.33;;
47337;SDS011;33069;51.970;5.892;2022-12-07T00:55:48;38.00;;;32.33;;
47337;SDS011;33069;51.970;5.892;2022-12-07T00:58:13;36.40;;;32.10;;
47337;SDS011;33069;51.970;5.892;2022-12-07T01:00:40;37.10;;;32.05;;
47337;SDS011;33069;51.970;5.892;2022-12-07T01:03:09;37.13;;;33.13;;
47337;SDS011;33069;51.970;5.892;2022-12-07T01:05:36;37.55;;;32.25;;
47337;SDS011;33069;51.970;5.892;2022-12-07T01:08:02;43.55;;;33.50;;
47337;SDS011;33069;51.970;5.892;2022-12-07T01:10:28;40.92;;;35.42;;
47337;SDS011;33069;51.970;5.892;2022-12-07T01:12:55;39.58;;;33.35;;
47337;SDS011;33069;51.970;5.892;2022-12-07T01:15:28;54.85;;;38.85;;
47337;SDS011;33069;51.970;5.892;2022-12-07T01:17:54;41.78;;;32.63;;
47337;SDS011;33069;51.970;5.892;2022-12-07T01:20:19;35.83;;;31.90;;
47337;SDS011;33069;51.970;5.892;2022-12-07T01:22:45;40.10;;;32.28;;
47337;SDS011;33069;51.970;5.892;2022-12-07T01:25:11;36.47;;;31.90;;
47337;SDS011;33069;51.970;5.892;2022-12-07T01:27:37;36.65;;;32.00;;
47337;SDS011;33069;51.970;5.892;2022-12-07T01:30:03;37.95;;;33.40;;
47337;SDS011;33069;51.970;5.892;2022-12-07T01:32:31;44.95;;;36.30;;
47337;SDS011;33069;51.970;5.892;2022-12-07T01:34:57;42.05;;;34.05;;
47337;SDS011;33069;51.970;5.892;2022-12-07T01:40:26;40.85;;;32.95;;
47337;SDS011;33069;51.970;5.892;2022-12-07T01:42:52;38.45;;;32.33;;
47337;SDS011;33069;51.970;5.892;2022-12-07T01:47:45;36.10;;;31.98;;
47337;SDS011;33069;51.970;5.892;2022-12-07T01:50:14;40.80;;;34.22;;
47337;SDS011;33069;51.970;5.892;2022-12-07T01:52:40;36.67;;;31.85;;
47337;SDS011;33069;51.970;5.892;2022-12-07T01:55:10;37.08;;;33.13;;
47337;SDS011;33069;51.970;5.892;2022-12-07T01:57:40;36.45;;;32.42;;
47337;SDS011;33069;51.970;5.892;2022-12-07T02:00:09;40.95;;;32.75;;
47337;SDS011;33069;51.970;5.892;2022-12-07T02:02:37;36.15;;;31.55;;
47337;SDS011;33069;51.970;5.892;2022-12-07T02:05:06;36.42;;;31.98;;
47337;SDS011;33069;51.970;5.892;2022-12-07T02:07:34;49.45;;;37.65;;
47337;SDS011;33069;51.970;5.892;2022-12-07T02:10:12;38.60;;;31.85;;
47337;SDS011;33069;51.970;5.892;2022-12-07T02:12:43;34.90;;;30.27;;
47337;SDS011;33069;51.970;5.892;2022-12-07T02:15:12;40.83;;;34.53;;
47337;SDS011;33069;51.970;5.892;2022-12-07T02:17:42;39.65;;;32.80;;
47337;SDS011;33069;51.970;5.892;2022-12-07T02:29:13;60.53;;;40.05;;
47337;SDS011;33069;51.970;5.892;2022-12-07T02:31:55;35.92;;;31.10;;
47337;SDS011;33069;51.970;5.892;2022-12-07T02:40:01;52.53;;;36.35;;
47337;SDS011;33069;51.970;5.892;2022-12-07T02:42:50;39.22;;;31.10;;
47337;SDS011;33069;51.970;5.892;2022-12-07T02:45:25;47.03;;;36.53;;
47337;SDS011;33069;51.970;5.892;2022-12-07T02:47:55;34.25;;;30.02;;
47337;SDS011;33069;51.970;5.892;2022-12-07T02:50:23;57.40;;;39.70;;
47337;SDS011;33069;51.970;5.892;2022-12-07T02:52:49;33.42;;;28.80;;
47337;SDS011;33069;51.970;5.892;2022-12-07T02:55:16;37.78;;;32.40;;
47337;SDS011;33069;51.970;5.892;2022-12-07T03:00:52;36.75;;;28.35;;
47337;SDS011;33069;51.970;5.892;2022-12-07T03:03:28;34.22;;;28.25;;
47337;SDS011;33069;51.970;5.892;2022-12-07T03:08:37;37.83;;;29.55;;
47337;SDS011;33069;51.970;5.892;2022-12-07T03:11:23;34.90;;;28.42;;
47337;SDS011;33069;51.970;5.892;2022-12-07T03:16:27;35.05;;;25.77;;
47337;SDS011;33069;51.970;5.892;2022-12-07T03:19:19;33.33;;;27.67;;
47337;SDS011;33069;51.970;5.892;2022-12-07T03:21:57;34.47;;;25.63;;
47337;SDS011;33069;51.970;5.892;2022-12-07T03:27:49;29.63;;;24.15;;
47337;SDS011;33069;51.970;5.892;2022-12-07T03:30:26;35.05;;;22.17;;
47337;SDS011;33069;51.970;5.892;2022-12-07T03:33:18;34.85;;;23.27;;
47337;SDS011;33069;51.970;5.892;2022-12-07T03:35:48;25.90;;;21.27;;
47337;SDS011;33069;51.970;5.892;2022-12-07T03:38:40;31.65;;;22.42;;
47337;SDS011;33069;51.970;5.892;2022-12-07T03:44:12;33.85;;;25.55;;
47337;SDS011;33069;51.970;5.892;2022-12-07T03:47:00;29.42;;;22.40;;
47337;SDS011;33069;51.970;5.892;2022-12-07T03:54:47;30.98;;;22.52;;
47337;SDS011;33069;51.970;5.892;2022-12-07T03:57:20;32.53;;;25.23;;
47337;SDS011;33069;51.970;5.892;2022-12-07T03:59:47;30.23;;;23.42;;
47337;SDS011;33069;51.970;5.892;2022-12-07T04:02:14;31.13;;;23.55;;
47337;SDS011;33069;51.970;5.892;2022-12-07T04:04:40;29.92;;;24.17;;
47337;SDS011;33069;51.970;5.892;2022-12-07T04:07:07;29.50;;;21.92;;
47337;SDS011;33069;51.970;5.892;2022-12-07T04:09:33;30.55;;;21.40;;
47337;SDS011;33069;51.970;5.892;2022-12-07T04:11:58;29.83;;;21.35;;
47337;SDS011;33069;51.970;5.892;2022-12-07T04:14:24;33.05;;;22.75;;
47337;SDS011;33069;51.970;5.892;2022-12-07T04:16:54;25.42;;;22.67;;
47337;SDS011;33069;51.970;5.892;2022-12-07T04:19:28;24.00;;;21.67;;
47337;SDS011;33069;51.970;5.892;2022-12-07T04:21:56;28.05;;;22.13;;
47337;SDS011;33069;51.970;5.892;2022-12-07T04:24:33;31.75;;;22.80;;
47337;SDS011;33069;51.970;5.892;2022-12-07T04:26:59;26.50;;;23.27;;
47337;SDS011;33069;51.970;5.892;2022-12-07T04:29:25;28.35;;;23.05;;
47337;SDS011;33069;51.970;5.892;2022-12-07T04:31:51;24.42;;;21.98;;
47337;SDS011;33069;51.970;5.892;2022-12-07T04:34:17;24.52;;;21.83;;
47337;SDS011;33069;51.970;5.892;2022-12-07T04:36:44;25.00;;;22.60;;
47337;SDS011;33069;51.970;5.892;2022-12-07T04:39:23;35.30;;;25.13;;
47337;SDS011;33069;51.970;5.892;2022-12-07T04:41:50;26.75;;;23.02;;
47337;SDS011;33069;51.970;5.892;2022-12-07T04:44:16;42.33;;;26.48;;
47337;SDS011;33069;51.970;5.892;2022-12-07T04:46:42;41.13;;;27.08;;
47337;SDS011;33069;51.970;5.892;2022-12-07T04:49:09;28.33;;;22.15;;
47337;SDS011;33069;51.970;5.892;2022-12-07T04:51:36;28.33;;;23.30;;
47337;SDS011;33069;51.970;5.892;2022-12-07T04:54:02;28.90;;;22.90;;
47337;SDS011;33069;51.970;5.892;2022-12-07T04:56:27;29.90;;;22.52;;
47337;SDS011;33069;51.970;5.892;2022-12-07T04:58:53;33.42;;;26.05;;
47337;SDS011;33069;51.970;5.892;2022-12-07T05:01:19;36.28;;;24.75;;
47337;SDS011;33069;51.970;5.892;2022-12-07T05:03:46;38.47;;;23.45;;
47337;SDS011;33069;51.970;5.892;2022-12-07T05:06:12;34.35;;;25.92;;
47337;SDS011;33069;51.970;5.892;2022-12-07T05:08:39;27.65;;;21.95;;
47337;SDS011;33069;51.970;5.892;2022-12-07T05:11:05;27.30;;;23.25;;
47337;SDS011;33069;51.970;5.892;2022-12-07T05:13:32;25.13;;;21.13;;
47337;SDS011;33069;51.970;5.892;2022-12-07T05:15:58;27.25;;;22.63;;
47337;SDS011;33069;51.970;5.892;2022-12-07T05:18:24;28.20;;;23.38;;
47337;SDS011;33069;51.970;5.892;2022-12-07T05:20:50;40.33;;;27.73;;
47337;SDS011;33069;51.970;5.892;2022-12-07T05:23:17;26.45;;;23.52;;
47337;SDS011;33069;51.970;5.892;2022-12-07T05:25:43;28.30;;;24.67;;
47337;SDS011;33069;51.970;5.892;2022-12-07T05:28:09;34.45;;;26.13;;
47337;SDS011;33069;51.970;5.892;2022-12-07T05:30:35;28.25;;;23.60;;
47337;SDS011;33069;51.970;5.892;2022-12-07T05:33:00;26.23;;;23.15;;
47337;SDS011;33069;51.970;5.892;2022-12-07T05:35:27;34.75;;;24.42;;
47337;SDS011;33069;51.970;5.892;2022-12-07T05:37:54;24.77;;;22.17;;
47337;SDS011;33069;51.970;5.892;2022-12-07T05:43:50;43.25;;;27.25;;
47337;SDS011;33069;51.970;5.892;2022-12-07T05:46:16;27.73;;;24.00;;
47337;SDS011;33069;51.970;5.892;2022-12-07T05:48:42;30.98;;;22.67;;
47337;SDS011;33069;51.970;5.892;2022-12-07T05:51:07;24.95;;;21.80;;
47337;SDS011;33069;51.970;5.892;2022-12-07T05:53:33;24.95;;;22.45;;
47337;SDS011;33069;51.970;5.892;2022-12-07T05:55:59;25.02;;;22.33;;
47337;SDS011;33069;51.970;5.892;2022-12-07T05:58:24;23.60;;;21.27;;
47337;SDS011;33069;51.970;5.892;2022-12-07T06:01:08;34.45;;;26.25;;
47337;SDS011;33069;51.970;5.892;2022-12-07T06:06:24;28.75;;;21.88;;
47337;SDS011;33069;51.970;5.892;2022-12-07T06:08:50;23.73;;;21.33;;
47337;SDS011;33069;51.970;5.892;2022-12-07T06:11:16;26.20;;;22.45;;
47337;SDS011;33069;51.970;5.892;2022-12-07T06:14:00;25.20;;;21.88;;
47337;SDS011;33069;51.970;5.892;2022-12-07T06:16:26;27.33;;;21.98;;
47337;SDS011;33069;51.970;5.892;2022-12-07T06:18:52;28.88;;;22.42;;
47337;SDS011;33069;51.970;5.892;2022-12-07T06:21:17;27.50;;;21.98;;
47337;SDS011;33069;51.970;5.892;2022-12-07T06:23:43;26.00;;;22.20;;
47337;SDS011;33069;51.970;5.892;2022-12-07T06:26:09;30.42;;;23.70;;
47337;SDS011;33069;51.970;5.892;2022-12-07T06:28:34;25.65;;;22.30;;
47337;SDS011;33069;51.970;5.892;2022-12-07T06:31:00;30.67;;;24.90;;
47337;SDS011;33069;51.970;5.892;2022-12-07T06:33:27;27.48;;;22.73;;
47337;SDS011;33069;51.970;5.892;2022-12-07T06:35:54;26.50;;;22.15;;
47337;SDS011;33069;51.970;5.892;2022-12-07T06:38:19;25.20;;;22.45;;
47337;SDS011;33069;51.970;5.892;2022-12-07T06:43:33;30.52;;;23.83;;
47337;SDS011;33069;51.970;5.892;2022-12-07T06:45:59;26.15;;;22.35;;
47337;SDS011;33069;51.970;5.892;2022-12-07T06:48:24;26.30;;;22.38;;
47337;SDS011;33069;51.970;5.892;2022-12-07T06:50:50;25.52;;;21.88;;
47337;SDS011;33069;51.970;5.892;2022-12-07T06:53:16;35.38;;;24.70;;
47337;SDS011;33069;51.970;5.892;2022-12-07T06:55:41;25.02;;;22.38;;
47337;SDS011;33069;51.970;5.892;2022-12-07T06:58:07;25.05;;;21.90;;
47337;SDS011;33069;51.970;5.892;2022-12-07T07:00:33;26.95;;;20.70;;
47337;SDS011;33069;51.970;5.892;2022-12-07T07:06:29;31.42;;;22.17;;
47337;SDS011;33069;51.970;5.892;2022-12-07T07:08:54;25.05;;;20.55;;
47337;SDS011;33069;51.970;5.892;2022-12-07T07:11:20;24.65;;;19.92;;
47337;SDS011;33069;51.970;5.892;2022-12-07T07:13:46;24.45;;;20.90;;
47337;SDS011;33069;51.970;5.892;2022-12-07T07:16:11;21.60;;;19.50;;
47337;SDS011;33069;51.970;5.892;2022-12-07T07:22:07;24.85;;;21.20;;
47337;SDS011;33069;51.970;5.892;2022-12-07T07:24:32;27.30;;;22.35;;
47337;SDS011;33069;51.970;5.892;2022-12-07T07:26:58;26.55;;;20.42;;
47337;SDS011;33069;51.970;5.892;2022-12-07T07:29:24;20.85;;;18.67;;
47337;SDS011;33069;51.970;5.892;2022-12-07T07:31:49;22.00;;;19.67;;
47337;SDS011;33069;51.970;5.892;2022-12-07T07:34:15;26.45;;;20.55;;
47337;SDS011;33069;51.970;5.892;2022-12-07T07:36:41;21.05;;;19.02;;
47337;SDS011;33069;51.970;5.892;2022-12-07T07:39:06;22.92;;;20.52;;
47337;SDS011;33069;51.970;5.892;2022-12-07T07:41:32;23.83;;;18.83;;
47337;SDS011;33069;51.970;5.892;2022-12-07T07:43:58;21.45;;;19.00;;
47337;SDS011;33069;51.970;5.892;2022-12-07T07:46:23;24.95;;;19.67;;
47337;SDS011;33069;51.970;5.892;2022-12-07T07:48:49;26.98;;;18.05;;
47337;SDS011;33069;51.970;5.892;2022-12-07T07:51:14;25.15;;;19.30;;
47337;SDS011;33069;51.970;5.892;2022-12-07T07:53:40;19.85;;;17.73;;
47337;SDS011;33069;51.970;5.892;2022-12-07T07:56:06;19.00;;;17.27;;
47337;SDS011;33069;51.970;5.892;2022-12-07T07:58:32;26.52;;;18.05;;
47337;SDS011;33069;51.970;5.892;2022-12-07T08:01:02;19.30;;;17.33;;
47337;SDS011;33069;51.970;5.892;2022-12-07T08:03:29;24.92;;;18.92;;
47337;SDS011;33069;51.970;5.892;2022-12-07T08:05:55;21.67;;;17.73;;
47337;SDS011;33069;51.970;5.892;2022-12-07T08:08:21;21.98;;;17.33;;
47337;SDS011;33069;51.970;5.892;2022-12-07T08:10:46;19.88;;;18.25;;
47337;SDS011;33069;51.970;5.892;2022-12-07T08:13:13;23.15;;;18.15;;
47337;SDS011;33069;51.970;5.892;2022-12-07T08:15:41;21.83;;;17.83;;
47337;SDS011;33069;51.970;5.892;2022-12-07T08:18:09;25.67;;;17.52;;
47337;SDS011;33069;51.970;5.892;2022-12-07T08:20:36;27.05;;;18.40;;
47337;SDS011;33069;51.970;5.892;2022-12-07T08:23:03;21.95;;;16.55;;
47337;SDS011;33069;51.970;5.892;2022-12-07T08:25:29;23.40;;;16.73;;
47337;SDS011;33069;51.970;5.892;2022-12-07T08:27:56;23.10;;;18.15;;
47337;SDS011;33069;51.970;5.892;2022-12-07T08:30:22;24.58;;;17.85;;
47337;SDS011;33069;51.970;5.892;2022-12-07T08:32:47;25.85;;;17.10;;
47337;SDS011;33069;51.970;5.892;2022-12-07T08:35:14;22.60;;;16.17;;
47337;SDS011;33069;51.970;5.892;2022-12-07T08:37:40;29.10;;;16.58;;
47337;SDS011;33069;51.970;5.892;2022-12-07T08:40:07;19.05;;;15.85;;
47337;SDS011;33069;51.970;5.892;2022-12-07T08:42:33;23.45;;;16.15;;
47337;SDS011;33069;51.970;5.892;2022-12-07T08:45:06;23.00;;;17.10;;
47337;SDS011;33069;51.970;5.892;2022-12-07T08:47:34;21.17;;;16.23;;
47337;SDS011;33069;51.970;5.892;2022-12-07T08:50:21;21.10;;;16.77;;
47337;SDS011;33069;51.970;5.892;2022-12-07T08:52:51;20.85;;;18.67;;
47337;SDS011;33069;51.970;5.892;2022-12-07T08:55:20;22.00;;;19.73;;
47337;SDS011;33069;51.970;5.892;2022-12-07T08:57:46;23.02;;;17.45;;
47337;SDS011;33069;51.970;5.892;2022-12-07T09:00:12;19.42;;;17.42;;
47337;SDS011;33069;51.970;5.892;2022-12-07T09:05:56;24.25;;;17.58;;
47337;SDS011;33069;51.970;5.892;2022-12-07T09:08:23;25.17;;;19.23;;
47337;SDS011;33069;51.970;5.892;2022-12-07T09:10:54;34.35;;;21.15;;
47337;SDS011;33069;51.970;5.892;2022-12-07T09:13:19;27.95;;;20.42;;
47337;SDS011;33069;51.970;5.892;2022-12-07T09:15:45;24.20;;;18.67;;
47337;SDS011;33069;51.970;5.892;2022-12-07T09:21:19;25.98;;;17.83;;
47337;SDS011;33069;51.970;5.892;2022-12-07T09:23:45;26.42;;;18.65;;
47337;SDS011;33069;51.970;5.892;2022-12-07T09:26:10;24.08;;;17.90;;
47337;SDS011;33069;51.970;5.892;2022-12-07T09:28:36;25.15;;;19.30;;
47337;SDS011;33069;51.970;5.892;2022-12-07T09:31:03;25.13;;;17.65;;
47337;SDS011;33069;51.970;5.892;2022-12-07T09:33:29;23.80;;;15.85;;
47337;SDS011;33069;51.970;5.892;2022-12-07T09:35:55;22.40;;;16.75;;
47337;SDS011;33069;51.970;5.892;2022-12-07T09:38:21;21.30;;;17.58;;
47337;SDS011;33069;51.970;5.892;2022-12-07T09:40:47;22.52;;;17.50;;
47337;SDS011;33069;51.970;5.892;2022-12-07T09:43:23;22.02;;;19.08;;
47337;SDS011;33069;51.970;5.892;2022-12-07T09:45:51;28.17;;;19.02;;
47337;SDS011;33069;51.970;5.892;2022-12-07T09:50:47;22.20;;;19.80;;
47337;SDS011;33069;51.970;5.892;2022-12-07T09:53:23;20.40;;;18.40;;
47337;SDS011;33069;51.970;5.892;2022-12-07T09:55:55;23.17;;;20.35;;
47337;SDS011;33069;51.970;5.892;2022-12-07T09:58:25;22.65;;;19.35;;
47337;SDS011;33069;51.970;5.892;2022-12-07T10:00:54;30.60;;;21.48;;
47337;SDS011;33069;51.970;5.892;2022-12-07T10:03:23;21.48;;;18.98;;
47337;SDS011;33069;51.970;5.892;2022-12-07T10:05:51;20.35;;;18.30;;
47337;SDS011;33069;51.970;5.892;2022-12-07T10:08:18;23.95;;;19.95;;
47337;SDS011;33069;51.970;5.892;2022-12-07T10:10:45;25.30;;;18.83;;
47337;SDS011;33069;51.970;5.892;2022-12-07T10:13:14;24.55;;;18.48;;
47337;SDS011;33069;51.970;5.892;2022-12-07T10:18:29;29.38;;;18.85;;
47337;SDS011;33069;51.970;5.892;2022-12-07T10:21:10;22.55;;;19.08;;
47337;SDS011;33069;51.970;5.892;2022-12-07T10:29:00;19.70;;;17.85;;
47337;SDS011;33069;51.970;5.892;2022-12-07T10:31:38;23.25;;;18.48;;
47337;SDS011;33069;51.970;5.892;2022-12-07T10:34:22;21.90;;;19.80;;
47337;SDS011;33069;51.970;5.892;2022-12-07T10:36:51;19.85;;;17.95;;
47337;SDS011;33069;51.970;5.892;2022-12-07T10:39:19;22.30;;;19.98;;
47337;SDS011;33069;51.970;5.892;2022-12-07T10:41:53;20.42;;;18.02;;
47337;SDS011;33069;51.970;5.892;2022-12-07T10:44:21;28.05;;;18.38;;
47337;SDS011;33069;51.970;5.892;2022-12-07T10:57:27;22.83;;;19.42;;
47337;SDS011;33069;51.970;5.892;2022-12-07T11:03:05;21.95;;;19.70;;
47337;SDS011;33069;51.970;5.892;2022-12-07T11:08:57;21.10;;;19.05;;
47337;SDS011;33069;51.970;5.892;2022-12-07T11:14:16;20.67;;;18.08;;
47337;SDS011;33069;51.970;5.892;2022-12-07T11:17:02;20.50;;;18.45;;
47337;SDS011;33069;51.970;5.892;2022-12-07T11:25:13;24.20;;;18.38;;
47337;SDS011;33069;51.970;5.892;2022-12-07T11:28:09;21.17;;;18.92;;
47337;SDS011;33069;51.970;5.892;2022-12-07T11:30:50;19.30;;;17.42;;
47337;SDS011;33069;51.970;5.892;2022-12-07T11:33:37;19.88;;;17.45;;
47337;SDS011;33069;51.970;5.892;2022-12-07T11:39:47;20.35;;;18.20;;
47337;SDS011;33069;51.970;5.892;2022-12-07T11:41:48;21.50;;;18.33;;
47337;SDS011;33069;51.970;5.892;2022-12-07T11:47:33;22.48;;;18.33;;
47337;SDS011;33069;51.970;5.892;2022-12-07T11:53:10;25.30;;;18.33;;
47337;SDS011;33069;51.970;5.892;2022-12-07T11:55:54;19.63;;;17.83;;
47337;SDS011;33069;51.970;5.892;2022-12-07T11:58:35;19.60;;;16.48;;
47337;SDS011;33069;51.970;5.892;2022-12-07T12:03:56;21.52;;;17.92;;
47337;SDS011;33069;51.970;5.892;2022-12-07T12:06:27;18.70;;;16.75;;
47337;SDS011;33069;51.970;5.892;2022-12-07T12:19:35;18.33;;;16.42;;
47337;SDS011;33069;51.970;5.892;2022-12-07T12:22:15;17.92;;;16.52;;
47337;SDS011;33069;51.970;5.892;2022-12-07T12:24:46;20.05;;;17.85;;
47337;SDS011;33069;51.970;5.892;2022-12-07T12:27:20;17.75;;;16.25;;
47337;SDS011;33069;51.970;5.892;2022-12-07T12:29:53;17.23;;;15.68;;
47337;SDS011;33069;51.970;5.892;2022-12-07T12:32:22;17.48;;;15.90;;
47337;SDS011;33069;51.970;5.892;2022-12-07T12:35:00;18.80;;;16.95;;
47337;SDS011;33069;51.970;5.892;2022-12-07T12:42:52;19.67;;;16.92;;
47337;SDS011;33069;51.970;5.892;2022-12-07T12:54:19;20.33;;;17.10;;
47337;SDS011;33069;51.970;5.892;2022-12-07T12:57:09;20.02;;;16.02;;
47337;SDS011;33069;51.970;5.892;2022-12-07T13:04:56;16.42;;;14.75;;
47337;SDS011;33069;51.970;5.892;2022-12-07T13:20:57;20.20;;;17.20;;
47337;SDS011;33069;51.970;5.892;2022-12-07T13:26:19;22.38;;;16.52;;
47337;SDS011;33069;51.970;5.892;2022-12-07T13:37:00;18.13;;;15.80;;
47337;SDS011;33069;51.970;5.892;2022-12-07T13:39:47;17.27;;;15.15;;
47337;SDS011;33069;51.970;5.892;2022-12-07T13:44:51;19.17;;;17.55;;
47337;SDS011;33069;51.970;5.892;2022-12-07T13:49:51;22.45;;;17.08;;
47337;SDS011;33069;51.970;5.892;2022-12-07T13:52:29;16.58;;;15.13;;
47337;SDS011;33069;51.970;5.892;2022-12-07T13:54:57;17.98;;;16.20;;
47337;SDS011;33069;51.970;5.892;2022-12-07T13:57:27;17.75;;;16.17;;
47337;SDS011;33069;51.970;5.892;2022-12-07T13:59:55;17.65;;;15.75;;
47337;SDS011;33069;51.970;5.892;2022-12-07T14:06:03;17.83;;;14.73;;
47337;SDS011;33069;51.970;5.892;2022-12-07T14:08:42;14.57;;;13.45;;
47337;SDS011;33069;51.970;5.892;2022-12-07T14:11:11;16.42;;;14.98;;
47337;SDS011;33069;51.970;5.892;2022-12-07T14:18:57;18.55;;;16.73;;
47337;SDS011;33069;51.970;5.892;2022-12-07T14:21:26;19.20;;;17.33;;
47337;SDS011;33069;51.970;5.892;2022-12-07T14:24:07;20.80;;;17.20;;
47337;SDS011;33069;51.970;5.892;2022-12-07T14:26:33;16.67;;;15.35;;
47337;SDS011;33069;51.970;5.892;2022-12-07T14:31:44;15.45;;;14.20;;
47337;SDS011;33069;51.970;5.892;2022-12-07T14:34:13;13.98;;;12.80;;
47337;SDS011;33069;51.970;5.892;2022-12-07T14:36:39;15.63;;;14.23;;
47337;SDS011;33069;51.970;5.892;2022-12-07T14:39:05;14.70;;;13.30;;
47337;SDS011;33069;51.970;5.892;2022-12-07T14:44:59;15.30;;;13.70;;
47337;SDS011;33069;51.970;5.892;2022-12-07T14:47:25;18.58;;;16.67;;
47337;SDS011;33069;51.970;5.892;2022-12-07T14:49:52;17.08;;;13.80;;
47337;SDS011;33069;51.970;5.892;2022-12-07T14:52:19;16.67;;;15.27;;
47337;SDS011;33069;51.970;5.892;2022-12-07T14:54:48;17.77;;;16.10;;
47337;SDS011;33069;51.970;5.892;2022-12-07T14:57:13;18.42;;;14.90;;
47337;SDS011;33069;51.970;5.892;2022-12-07T14:59:39;17.20;;;15.82;;
47337;SDS011;33069;51.970;5.892;2022-12-07T15:02:05;18.05;;;16.42;;
47337;SDS011;33069;51.970;5.892;2022-12-07T15:04:32;16.67;;;15.13;;
47337;SDS011;33069;51.970;5.892;2022-12-07T15:06:58;15.27;;;13.85;;
47337;SDS011;33069;51.970;5.892;2022-12-07T15:09:26;16.73;;;15.07;;
47337;SDS011;33069;51.970;5.892;2022-12-07T15:11:51;19.48;;;17.58;;
47337;SDS011;33069;51.970;5.892;2022-12-07T15:14:17;17.42;;;16.10;;
47337;SDS011;33069;51.970;5.892;2022-12-07T15:16:43;19.15;;;16.75;;
47337;SDS011;33069;51.970;5.892;2022-12-07T15:19:12;18.98;;;15.90;;
47337;SDS011;33069;51.970;5.892;2022-12-07T15:24:09;16.70;;;15.45;;
47337;SDS011;33069;51.970;5.892;2022-12-07T15:26:36;18.08;;;15.38;;
47337;SDS011;33069;51.970;5.892;2022-12-07T15:29:03;16.88;;;15.38;;
47337;SDS011;33069;51.970;5.892;2022-12-07T15:34:33;16.42;;;15.15;;
47337;SDS011;33069;51.970;5.892;2022-12-07T15:36:59;19.52;;;17.73;;
47337;SDS011;33069;51.970;5.892;2022-12-07T15:39:24;24.65;;;17.13;;
47337;SDS011;33069;51.970;5.892;2022-12-07T15:41:50;18.13;;;15.38;;
47337;SDS011;33069;51.970;5.892;2022-12-07T15:44:16;18.42;;;16.90;;
47337;SDS011;33069;51.970;5.892;2022-12-07T15:47:00;17.65;;;15.90;;
47337;SDS011;33069;51.970;5.892;2022-12-07T15:49:26;18.77;;;15.93;;
47337;SDS011;33069;51.970;5.892;2022-12-07T15:51:52;17.15;;;15.50;;
47337;SDS011;33069;51.970;5.892;2022-12-07T15:56:48;18.92;;;16.95;;
47337;SDS011;33069;51.970;5.892;2022-12-07T15:59:15;21.25;;;16.88;;
47337;SDS011;33069;51.970;5.892;2022-12-07T16:01:41;19.95;;;15.50;;
47337;SDS011;33069;51.970;5.892;2022-12-07T16:04:07;22.83;;;18.25;;
47337;SDS011;33069;51.970;5.892;2022-12-07T16:06:32;20.92;;;17.15;;
47337;SDS011;33069;51.970;5.892;2022-12-07T16:08:58;22.90;;;16.50;;
47337;SDS011;33069;51.970;5.892;2022-12-07T16:11:24;29.90;;;18.95;;
47337;SDS011;33069;51.970;5.892;2022-12-07T16:13:50;18.27;;;16.58;;
47337;SDS011;33069;51.970;5.892;2022-12-07T16:22:29;21.75;;;18.55;;
47337;SDS011;33069;51.970;5.892;2022-12-07T16:27:30;18.00;;;16.17;;
47337;SDS011;33069;51.970;5.892;2022-12-07T16:29:56;18.95;;;15.88;;
47337;SDS011;33069;51.970;5.892;2022-12-07T16:32:22;19.83;;;16.98;;
47337;SDS011;33069;51.970;5.892;2022-12-07T16:34:47;18.92;;;16.08;;
47337;SDS011;33069;51.970;5.892;2022-12-07T16:37:13;19.23;;;17.05;;
47337;SDS011;33069;51.970;5.892;2022-12-07T16:39:39;17.63;;;16.10;;
47337;SDS011;33069;51.970;5.892;2022-12-07T16:42:04;16.98;;;15.68;;
47337;SDS011;33069;51.970;5.892;2022-12-07T16:44:30;17.42;;;15.70;;
47337;SDS011;33069;51.970;5.892;2022-12-07T16:46:56;18.88;;;16.90;;
47337;SDS011;33069;51.970;5.892;2022-12-07T16:49:22;15.73;;;14.23;;
47337;SDS011;33069;51.970;5.892;2022-12-07T16:51:49;16.30;;;14.57;;
47337;SDS011;33069;51.970;5.892;2022-12-07T16:54:15;14.40;;;13.00;;
47337;SDS011;33069;51.970;5.892;2022-12-07T16:56:41;17.52;;;14.35;;
47337;SDS011;33069;51.970;5.892;2022-12-07T16:59:07;17.15;;;15.68;;
47337;SDS011;33069;51.970;5.892;2022-12-07T17:01:33;15.05;;;13.73;;
47337;SDS011;33069;51.970;5.892;2022-12-07T17:03:59;16.92;;;14.20;;
47337;SDS011;33069;51.970;5.892;2022-12-07T17:06:26;15.02;;;13.60;;
47337;SDS011;33069;51.970;5.892;2022-12-07T17:08:52;17.38;;;15.60;;
47337;SDS011;33069;51.970;5.892;2022-12-07T17:11:20;16.17;;;14.68;;
47337;SDS011;33069;51.970;5.892;2022-12-07T17:13:51;15.93;;;14.35;;
47337;SDS011;33069;51.970;5.892;2022-12-07T17:16:36;16.95;;;15.45;;
47337;SDS011;33069;51.970;5.892;2022-12-07T17:19:05;17.42;;;15.85;;
47337;SDS011;33069;51.970;5.892;2022-12-07T17:21:33;18.67;;;14.95;;
47337;SDS011;33069;51.970;5.892;2022-12-07T17:23:59;18.77;;;16.60;;
47337;SDS011;33069;51.970;5.892;2022-12-07T17:26:26;20.23;;;18.15;;
47337;SDS011;33069;51.970;5.892;2022-12-07T17:28:52;20.50;;;17.13;;
47337;SDS011;33069;51.970;5.892;2022-12-07T17:31:19;18.73;;;15.85;;
47337;SDS011;33069;51.970;5.892;2022-12-07T17:33:47;17.50;;;15.90;;
47337;SDS011;33069;51.970;5.892;2022-12-07T17:36:14;17.42;;;15.82;;
47337;SDS011;33069;51.970;5.892;2022-12-07T17:38:48;17.00;;;15.43;;
47337;SDS011;33069;51.970;5.892;2022-12-07T17:41:16;18.02;;;16.52;;
47337;SDS011;33069;51.970;5.892;2022-12-07T17:44:06;18.15;;;16.58;;
47337;SDS011;33069;51.970;5.892;2022-12-07T17:46:37;18.52;;;16.73;;
47337;SDS011;33069;51.970;5.892;2022-12-07T17:49:04;16.73;;;15.43;;
47337;SDS011;33069;51.970;5.892;2022-12-07T17:51:30;18.38;;;16.75;;
47337;SDS011;33069;51.970;5.892;2022-12-07T17:54:15;18.00;;;16.70;;
47337;SDS011;33069;51.970;5.892;2022-12-07T17:56:43;19.02;;;17.30;;
47337;SDS011;33069;51.970;5.892;2022-12-07T17:59:09;18.90;;;17.05;;